Flagstaff, AZ

2:11 PM MST on January 26, 2015 (GMT -0700)
Bow and Arrow | Change Station
CLOSE
Current Station
Personal Weather Station
Location: Flagstaff, AZ
Elevation: 6900 ft
Nearby Weather Stations

Elev 6900 ft 35.16 °N, 111.66 °W | Updated 1 second ago

Clear
Clear
54.0 °F
Feels Like 54.0 °F
N
2.2
Wind Variable Wind from ESE
Gusts 4.9 mph

Today
High -- | Low -- °F
--% Chance of Precip.
Yesterday
High -- | Low -- °F
Precip. -- in
7:29 AM 5:48 PM
Waxing Crescent, 46% visible
Pressure 30.17 in
Visibility 10.0 miles
Clouds Clear
Dew Point 28 °F
Humidity 36%
Rainfall 0.00 in
Snow Depth Not available.
UV 4 out of 12
Pollen 2.80 out of 12
Air Quality Not available.
Flu Activity Not available.
METAR KFLG 262057Z 10006KT 10SM CLR 11/M04 A3029 RMK AO2 SLP215 T01111044 56022

More Conditions Fewer Conditions

Pressure 30.17 in
Visibility 10.0 miles
Clouds Clear
Dew Point 28 °F
Humidity 36%
Rainfall 0.00 in
Snow Depth Not available.
UV 4 out of 12
Pollen 2.80 out of 12
Air Quality Not available.
Flu Activity Not available.
METAR KFLG 262057Z 10006KT 10SM CLR 11/M04 A3029 RMK AO2 SLP215 T01111044 56022

More Conditions Fewer Conditions

10-Day Weather Forecast

Almanac

Astronomy

Jan. 26, 2015 Rise Set
Actual Time
Civil Twilight
Nautical Twilight
Astronomical Twilight
Moon
Length of Visible Light
Length of Day
Tomorrow will be .
, % of the Moon is Illuminated

Today's Extremes

State Highs State Lows

Community

WunderPhotos

Upload Photos

1,790,364 photos uploaded!

WunderBlogs® & News

Nearby

Air Quality

  Air Quality AQ Index Pollutant
Not available.

Snow Depth

Station Depth Elevation

Earthquake Activity

City Distance Mag. Time & Date
Minimum magnitude displayed is 2.5.

Coastal Water Temperatures

Place Temperature

Nearby Weather Stations